Time;durP1;ratioP1;P1;durP2;ratioP2;P2;SDS_P1;SDS_P2;PMS_P1;PMS_P2;Temp;Humidity;BMP_temperature;BMP_pressure;BME280_temperature;BME280_humidity;BME280_pressure;Samples;Min_cycle;Max_cycle;Signal;HPM_P1;HPM_P2
2022/08/26 00:01:53;;;;;;;4.82;1.75;;;21.50;99.90;;;;;;4932033;29;20036;-90
2022/08/26 00:04:19;;;;;;;5.28;1.48;;;21.50;99.90;;;;;;4927977;29;20012;-89
2022/08/26 00:06:45;;;;;;;3.72;1.30;;;21.60;99.90;;;;;;4933268;29;20036;-90
2022/08/26 00:09:10;;;;;;;2.97;1.40;;;21.50;99.90;;;;;;4929522;29;20032;-90
2022/08/26 00:11:36;;;;;;;4.78;1.63;;;21.50;99.90;;;;;;4921685;29;20083;-89
2022/08/26 00:14:02;;;;;;;5.72;1.83;;;21.50;99.90;;;;;;4915946;29;20024;-90
2022/08/26 00:16:28;;;;;;;5.57;1.85;;;21.50;99.90;;;;;;4914888;29;20031;-89
2022/08/26 00:18:55;;;;;;;5.00;1.67;;;21.50;99.90;;;;;;4897802;29;20449;-90
2022/08/26 00:21:21;;;;;;;3.45;1.35;;;21.50;99.90;;;;;;4914876;29;20063;-90
2022/08/26 00:23:47;;;;;;;4.88;1.50;;;21.50;99.90;;;;;;4914418;29;20498;-90
2022/08/26 00:26:13;;;;;;;2.38;1.42;;;21.60;99.90;;;;;;4897776;29;20131;-90
2022/08/26 00:28:39;;;;;;;4.93;1.73;;;21.70;99.90;;;;;;4914325;29;20062;-90
2022/08/26 00:31:04;;;;;;;5.30;2.08;;;21.70;99.90;;;;;;4914440;29;20064;-90
2022/08/26 00:33:31;;;;;;;4.82;1.52;;;21.80;99.90;;;;;;4914258;29;20031;-90
2022/08/26 00:35:57;;;;;;;3.42;1.50;;;21.70;99.90;;;;;;4889244;29;20035;-90
2022/08/26 00:38:23;;;;;;;5.15;1.60;;;21.70;99.90;;;;;;4908464;29;20110;-90
2022/08/26 00:40:55;;;;;;;4.55;1.73;;;21.70;99.90;;;;;;4914621;29;20142;-90
2022/08/26 00:43:22;;;;;;;3.17;1.60;;;21.70;99.90;;;;;;4914454;29;20039;-90
2022/08/26 00:46:15;;;;;;;5.63;1.80;;;21.60;99.90;;;;;;4914550;29;20035;-91
2022/08/26 00:48:45;;;;;;;5.80;1.70;;;21.60;99.90;;;;;;4914510;29;20072;-90
2022/08/26 00:51:17;;;;;;;3.22;1.40;;;21.60;99.90;;;;;;4897404;29;20489;-90
2022/08/26 00:54:00;;;;;;;7.53;2.28;;;21.60;99.90;;;;;;4914540;29;20146;-90
2022/08/26 00:56:34;;;;;;;5.82;2.13;;;21.60;99.90;;;;;;4914543;29;20032;-90
2022/08/26 00:59:05;;;;;;;5.40;1.80;;;21.50;99.90;;;;;;4914175;29;20481;-90
2022/08/26 01:01:31;;;;;;;4.65;1.73;;;21.50;99.90;;;;;;4897007;29;20091;-90
2022/08/26 01:03:58;;;;;;;5.25;1.63;;;21.50;99.90;;;;;;4913913;29;20757;-90
2022/08/26 01:06:26;;;;;;;4.35;1.55;;;21.50;99.90;;;;;;4894088;29;20057;-90
2022/08/26 01:08:52;;;;;;;5.65;1.77;;;21.50;99.90;;;;;;4895510;29;20039;-90
2022/08/26 01:11:18;;;;;;;6.60;1.90;;;21.50;99.90;;;;;;4895453;29;20093;-90
2022/08/26 01:13:46;;;;;;;6.15;1.77;;;21.50;99.90;;;;;;4894185;29;20029;-90
2022/08/26 01:16:14;;;;;;;6.22;1.65;;;21.40;99.90;;;;;;4895161;29;20020;-90
2022/08/26 01:18:42;;;;;;;5.07;2.20;;;21.50;99.90;;;;;;4895139;29;20092;-90
2022/08/26 01:21:38;;;;;;;9.50;2.10;;;21.40;99.90;;;;;;4893757;29;20047;-91
2022/08/26 01:24:05;;;;;;;3.38;1.63;;;21.30;99.90;;;;;;4883822;29;20517;-90
2022/08/26 01:26:40;;;;;;;4.68;1.80;;;21.30;99.90;;;;;;4895134;29;20517;-90
2022/08/26 01:29:11;;;;;;;6.57;2.40;;;21.30;99.90;;;;;;4895520;29;20017;-91
2022/08/26 01:31:45;;;;;;;5.78;1.90;;;21.30;99.90;;;;;;4894174;29;20417;-91
2022/08/26 01:34:20;;;;;;;;;;;21.30;99.90;;;;;;4903563;29;20025;-90
2022/08/26 01:36:47;;;;;;;;;;;21.30;99.90;;;;;;4906898;29;19911;-90
2022/08/26 01:39:12;;;;;;;5.70;1.70;;;21.20;99.90;;;;;;4895175;29;19907;-90
2022/08/26 01:41:39;;;;;;;3.38;1.45;;;21.30;99.90;;;;;;4881875;29;20553;-90
2022/08/26 01:44:13;;;;;;;4.20;1.63;;;21.30;99.90;;;;;;4894077;29;20494;-91
2022/08/26 01:46:40;;;;;;;5.30;1.80;;;21.30;99.90;;;;;;4893422;29;20394;-90
2022/08/26 01:49:07;;;;;;;7.18;1.80;;;21.30;99.90;;;;;;4896882;29;20024;-90
2022/08/26 01:51:37;;;;;;;3.78;1.52;;;21.20;99.90;;;;;;4898274;29;20131;-90
2022/08/26 01:54:06;;;;;;;6.30;1.80;;;21.20;99.90;;;;;;4898174;29;20551;-91
2022/08/26 01:56:33;;;;;;;6.13;1.90;;;21.10;99.90;;;;;;4898198;29;20035;-90
2022/08/26 01:59:01;;;;;;;5.22;1.83;;;21.10;99.90;;;;;;4897982;29;20053;-91
2022/08/26 02:01:28;;;;;;;4.45;1.83;;;21.10;99.90;;;;;;4898400;29;20527;-90
2022/08/26 02:04:00;;;;;;;3.35;1.50;;;21.10;99.90;;;;;;4897016;29;20077;-90
2022/08/26 02:06:25;;;;;;;4.38;1.50;;;21.10;99.90;;;;;;4915992;29;20068;-91
2022/08/26 02:08:55;;;;;;;4.82;1.90;;;21.10;99.90;;;;;;4917204;29;20056;-90
2022/08/26 02:11:21;;;;;;;4.40;1.50;;;21.00;99.90;;;;;;4900158;29;20036;-91
2022/08/26 02:13:50;;;;;;;3.65;1.58;;;21.00;99.90;;;;;;4889594;29;20394;-90
2022/08/26 02:16:20;;;;;;;4.30;1.90;;;21.00;99.90;;;;;;4915426;29;20491;-90
2022/08/26 02:18:47;;;;;;;4.10;1.50;;;20.90;99.90;;;;;;4916724;29;20025;-90
2022/08/26 02:21:14;;;;;;;6.50;1.70;;;20.90;99.90;;;;;;4916748;29;20652;-90
2022/08/26 02:23:41;;;;;;;4.95;1.63;;;20.90;99.90;;;;;;4916737;29;20519;-91
2022/08/26 02:26:11;;;;;;;4.60;1.63;;;20.80;99.90;;;;;;4916936;29;20095;-90
2022/08/26 02:28:51;;;;;;;6.18;2.17;;;20.80;99.90;;;;;;4916865;29;20032;-91
2022/08/26 02:31:18;;;;;;;5.10;1.90;;;20.70;99.90;;;;;;4899389;29;20079;-90
2022/08/26 02:33:44;;;;;;;6.28;2.03;;;20.70;99.90;;;;;;4899645;29;20024;-90
2022/08/26 02:36:10;;;;;;;5.63;1.88;;;20.70;99.90;;;;;;4899829;29;20492;-90
2022/08/26 02:38:35;;;;;;;5.15;1.70;;;20.70;99.90;;;;;;4899401;29;20508;-91
2022/08/26 02:41:01;;;;;;;5.75;2.08;;;20.80;99.90;;;;;;4899586;29;20024;-91
2022/08/26 02:43:27;;;;;;;5.00;1.90;;;20.80;99.90;;;;;;4916718;29;20381;-90
2022/08/26 02:45:53;;;;;;;5.22;1.83;;;20.80;99.90;;;;;;4916481;29;20024;-91
2022/08/26 02:48:20;;;;;;;4.97;2.10;;;20.90;99.90;;;;;;4916478;29;20151;-90
2022/08/26 02:50:47;;;;;;;6.20;2.45;;;20.90;99.90;;;;;;4921496;29;20024;-90
2022/08/26 02:53:14;;;;;;;4.20;1.80;;;20.90;99.90;;;;;;4919771;29;20067;-90
2022/08/26 02:55:41;;;;;;;5.35;2.22;;;20.80;99.90;;;;;;4929467;29;20111;-90
2022/08/26 02:58:08;;;;;;;7.32;2.10;;;20.90;99.90;;;;;;4915797;29;20702;-90
2022/08/26 03:00:39;;;;;;;7.03;2.00;;;20.90;99.90;;;;;;4898251;29;20063;-90
2022/08/26 03:03:06;;;;;;;5.18;2.03;;;20.80;99.90;;;;;;4915829;29;20024;-91
2022/08/26 03:05:32;;;;;;;6.32;2.10;;;20.70;99.90;;;;;;4898679;29;20056;-90
2022/08/26 03:07:58;;;;;;;5.13;1.88;;;20.60;99.90;;;;;;4898927;29;20031;-90
2022/08/26 03:10:24;;;;;;;9.88;2.60;;;20.70;99.90;;;;;;4915732;29;20032;-91
2022/08/26 03:12:49;;;;;;;6.00;2.70;;;20.80;99.90;;;;;;4898945;29;20036;-90
2022/08/26 03:15:17;;;;;;;6.85;2.50;;;20.60;99.90;;;;;;4916137;29;20028;-90
2022/08/26 03:17:43;;;;;;;8.38;2.22;;;20.60;99.90;;;;;;4915733;29;20588;-90
2022/08/26 03:20:09;;;;;;;4.93;2.60;;;20.60;99.90;;;;;;4915795;29;20024;-90
2022/08/26 03:22:37;;;;;;;7.03;2.50;;;20.60;99.90;;;;;;4889573;29;20028;-89
2022/08/26 03:25:06;;;;;;;4.80;2.15;;;20.70;99.90;;;;;;4912408;29;20021;-90
2022/08/26 03:27:32;;;;;;;6.80;2.55;;;20.60;99.90;;;;;;4915582;29;20055;-90
2022/08/26 03:32:44;;;;;;;4.72;2.38;;;20.50;99.90;;;;;;4915762;29;20087;-90
2022/08/26 03:35:10;;;;;;;4.75;2.30;;;20.50;99.90;;;;;;4915353;29;20087;-90
2022/08/26 03:37:37;;;;;;;7.95;2.63;;;20.50;99.90;;;;;;4899348;29;20528;-90
2022/08/26 03:40:03;;;;;;;5.38;2.05;;;20.40;99.90;;;;;;4917180;29;20024;-90
2022/08/26 03:42:29;;;;;;;4.57;2.20;;;20.40;99.90;;;;;;4899106;29;20413;-90
2022/08/26 03:44:54;;;;;;;5.47;2.38;;;20.40;99.90;;;;;;4915253;29;20021;-90
2022/08/26 03:47:20;;;;;;;5.82;2.40;;;20.40;99.90;;;;;;4915667;29;20400;-90
2022/08/26 03:49:46;;;;;;;7.88;2.78;;;20.40;99.90;;;;;;4915262;29;20028;-89
2022/08/26 03:52:13;;;;;;;5.93;2.10;;;20.40;99.90;;;;;;4915439;29;20039;-91
2022/08/26 03:54:40;;;;;;;9.15;2.78;;;20.30;99.90;;;;;;4915373;29;20032;-91
2022/08/26 03:57:05;;;;;;;5.82;2.30;;;20.30;99.90;;;;;;4915561;29;20147;-91
2022/08/26 03:59:31;;;;;;;6.80;2.30;;;20.30;99.90;;;;;;4914843;29;20071;-91
2022/08/26 04:01:57;;;;;;;7.70;2.38;;;20.10;99.90;;;;;;4897756;29;20036;-89
2022/08/26 04:04:22;;;;;;;4.43;1.98;;;20.10;99.90;;;;;;4914819;29;20047;-91
2022/08/26 04:06:49;;;;;;;6.30;2.55;;;20.10;99.90;;;;;;4914804;29;20485;-90
2022/08/26 04:09:19;;;;;;;6.22;2.22;;;20.10;99.90;;;;;;4915055;29;20028;-90
2022/08/26 04:11:45;;;;;;;7.65;2.60;;;20.00;99.90;;;;;;4914395;29;20032;-90
2022/08/26 04:14:14;;;;;;;6.70;2.22;;;20.00;99.90;;;;;;4914900;29;20050;-91
2022/08/26 04:16:41;;;;;;;7.07;2.97;;;19.90;99.90;;;;;;4915013;29;20531;-90
2022/08/26 04:19:11;;;;;;;5.70;2.33;;;19.80;99.90;;;;;;4914986;29;20167;-90
2022/08/26 04:21:38;;;;;;;7.22;2.72;;;19.80;99.90;;;;;;4914822;29;20035;-91
2022/08/26 04:24:05;;;;;;;5.78;2.75;;;19.80;99.90;;;;;;4913225;29;20048;-89
2022/08/26 04:26:35;;;;;;;5.07;2.50;;;19.80;99.90;;;;;;4937167;29;20036;-90
2022/08/26 04:29:04;;;;;;;6.40;2.35;;;19.70;99.90;;;;;;4923332;29;20027;-90
2022/08/26 04:31:31;;;;;;;7.28;2.95;;;19.70;99.90;;;;;;4914551;29;20043;-90
2022/08/26 04:33:57;;;;;;;6.45;2.83;;;19.80;99.90;;;;;;4914562;29;20024;-89
2022/08/26 04:36:23;;;;;;;6.07;2.60;;;19.80;99.90;;;;;;4914854;29;20036;-89
2022/08/26 04:38:49;;;;;;;6.00;2.85;;;19.70;99.90;;;;;;4914513;29;20467;-90
2022/08/26 04:41:16;;;;;;;6.03;2.30;;;19.80;99.90;;;;;;4897616;29;20435;-91
2022/08/26 04:43:42;;;;;;;5.55;2.45;;;19.80;99.90;;;;;;4914489;29;20024;-90
2022/08/26 04:46:09;;;;;;;7.30;2.47;;;19.80;99.90;;;;;;4914751;29;20036;-90
2022/08/26 04:48:34;;;;;;;5.50;2.58;;;19.80;99.90;;;;;;4913298;29;20119;-91
2022/08/26 04:51:00;;;;;;;4.65;2.60;;;19.80;99.90;;;;;;4897398;29;20168;-90
2022/08/26 04:53:27;;;;;;;6.55;2.88;;;19.90;99.90;;;;;;4914526;29;20024;-90
2022/08/26 04:55:53;;;;;;;7.80;2.35;;;19.80;99.90;;;;;;4897112;29;20181;-90
2022/08/26 04:58:21;;;;;;;7.65;2.58;;;19.80;99.90;;;;;;4914426;29;20485;-90
2022/08/26 05:00:48;;;;;;;4.00;2.40;;;19.80;99.90;;;;;;4914619;29;20025;-90
2022/08/26 05:03:16;;;;;;;5.22;2.35;;;19.80;99.90;;;;;;4897288;29;20483;-91
2022/08/26 05:05:42;;;;;;;8.40;2.50;;;19.80;99.90;;;;;;4891480;29;20052;-90
2022/08/26 05:08:10;;;;;;;8.85;2.72;;;19.80;99.90;;;;;;4894116;29;20036;-91
2022/08/26 05:10:44;;;;;;;7.35;2.42;;;19.80;99.90;;;;;;4894225;29;20040;-91
2022/08/26 05:13:10;;;;;;;7.20;2.20;;;19.90;99.90;;;;;;4895877;29;20143;-90
2022/08/26 05:15:36;;;;;;;7.05;2.42;;;19.90;99.90;;;;;;4894588;29;20025;-91
2022/08/26 05:18:06;;;;;;;4.88;2.20;;;19.90;99.90;;;;;;4895613;29;20489;-89
2022/08/26 05:20:37;;;;;;;6.32;2.42;;;19.90;99.90;;;;;;4895306;29;20108;-89
2022/08/26 05:23:03;;;;;;;7.43;2.28;;;19.80;99.90;;;;;;4897091;29;20029;-89
2022/08/26 05:25:29;;;;;;;6.82;2.55;;;19.80;99.90;;;;;;4897342;29;20080;-90
2022/08/26 05:27:55;;;;;;;5.85;2.15;;;19.80;99.90;;;;;;4898823;29;20115;-90
2022/08/26 05:30:21;;;;;;;5.18;2.15;;;19.90;99.90;;;;;;4899469;29;20013;-91
2022/08/26 05:32:49;;;;;;;5.05;2.15;;;19.90;99.90;;;;;;4899264;29;20043;-90
2022/08/26 05:35:17;;;;;;;6.43;2.20;;;19.90;99.90;;;;;;4899649;29;20039;-90
2022/08/26 05:37:42;;;;;;;8.88;2.72;;;19.90;99.90;;;;;;4874441;29;20494;-91
2022/08/26 05:40:09;;;;;;;5.85;2.00;;;19.80;99.90;;;;;;4893703;29;20029;-90
2022/08/26 05:42:35;;;;;;;6.10;2.33;;;19.90;99.90;;;;;;4898594;29;20029;-91
2022/08/26 05:45:01;;;;;;;4.75;2.47;;;19.90;99.90;;;;;;4897589;29;20024;-90
2022/08/26 05:47:27;;;;;;;11.85;2.08;;;19.90;99.90;;;;;;4898536;29;20028;-91
2022/08/26 05:49:54;;;;;;;9.60;2.28;;;20.00;99.90;;;;;;4898767;29;20040;-92
2022/08/26 05:52:20;;;;;;;7.78;2.70;;;20.00;99.90;;;;;;4896704;29;21828;-91
2022/08/26 05:54:46;;;;;;;9.45;2.30;;;20.10;99.90;;;;;;4898881;29;20076;-90
2022/08/26 05:57:12;;;;;;;8.43;2.30;;;20.10;99.90;;;;;;4897476;29;20127;-90
2022/08/26 05:59:38;;;;;;;7.57;2.22;;;20.00;99.90;;;;;;4898794;29;20027;-90
2022/08/26 06:02:05;;;;;;;6.15;2.17;;;20.00;99.90;;;;;;4898234;29;20486;-91
2022/08/26 06:04:30;;;;;;;6.53;2.28;;;20.10;99.90;;;;;;4900797;29;21520;-91
2022/08/26 06:06:57;;;;;;;7.68;2.60;;;20.10;99.90;;;;;;4917064;29;20036;-90
2022/08/26 06:09:23;;;;;;;5.90;2.25;;;20.20;99.90;;;;;;4916727;29;20024;-90
2022/08/26 06:11:49;;;;;;;5.63;2.30;;;20.20;99.90;;;;;;4916920;29;20040;-90
2022/08/26 06:14:16;;;;;;;4.80;1.95;;;20.20;99.90;;;;;;4900008;29;20039;-90
2022/08/26 06:16:43;;;;;;;7.20;2.33;;;20.20;99.90;;;;;;4896830;29;20092;-90
2022/08/26 06:19:12;;;;;;;5.78;1.85;;;20.30;99.90;;;;;;4910820;29;20020;-90
2022/08/26 06:21:40;;;;;;;7.30;2.03;;;20.40;99.90;;;;;;4916245;29;20115;-89
2022/08/26 06:26:55;;;;;;;6.00;2.05;;;20.50;99.90;;;;;;4924292;29;20339;-89
2022/08/26 06:29:24;;;;;;;7.50;2.20;;;20.50;99.90;;;;;;4908605;29;20531;-90
2022/08/26 06:31:50;;;;;;;6.20;2.20;;;20.50;99.90;;;;;;4917749;29;20040;-89
2022/08/26 06:34:16;;;;;;;8.90;2.05;;;20.30;99.90;;;;;;4896836;29;20044;-89
2022/08/26 06:36:43;;;;;;;7.15;2.17;;;20.40;99.90;;;;;;4918027;29;20028;-89
2022/08/26 06:39:12;;;;;;;4.50;1.60;;;20.50;99.90;;;;;;4927078;29;20031;-89
2022/08/26 06:41:38;;;;;;;5.63;1.85;;;20.60;99.90;;;;;;4927564;29;20016;-89
2022/08/26 06:44:06;;;;;;;8.13;2.10;;;20.70;99.90;;;;;;4927232;29;20186;-89
2022/08/26 06:46:33;;;;;;;9.10;2.40;;;20.80;99.90;;;;;;4927214;29;20022;-89
2022/08/26 06:48:59;;;;;;;9.82;2.20;;;20.80;99.90;;;;;;4903630;29;20095;-90
2022/08/26 06:51:31;;;;;;;4.85;2.00;;;20.60;99.90;;;;;;4924560;29;20040;-89
2022/08/26 06:53:59;;;;;;;7.82;2.03;;;20.60;99.90;;;;;;4926602;29;20059;-89
2022/08/26 06:56:28;;;;;;;7.10;2.00;;;20.70;99.90;;;;;;4925920;29;20367;-89
2022/08/26 06:58:53;;;;;;;7.15;1.90;;;20.80;99.90;;;;;;4909325;29;20060;-90
2022/08/26 07:01:23;;;;;;;6.05;2.20;;;20.90;99.90;;;;;;4926331;29;20039;-90
2022/08/26 07:03:49;;;;;;;5.82;2.05;;;20.90;99.90;;;;;;4925499;29;20166;-91
2022/08/26 07:06:18;;;;;;;5.47;1.90;;;20.90;99.90;;;;;;4916513;29;20052;-93
2022/08/26 07:08:44;;;;;;;7.25;2.03;;;21.00;99.90;;;;;;4901290;29;20047;-89
2022/08/26 07:11:11;;;;;;;6.15;2.03;;;21.00;99.90;;;;;;4916229;29;20527;-89
2022/08/26 07:13:37;;;;;;;4.78;1.88;;;21.00;99.90;;;;;;4916909;29;20024;-89
2022/08/26 07:16:05;;;;;;;7.18;2.10;;;21.10;99.90;;;;;;4916502;29;20039;-91
2022/08/26 07:18:33;;;;;;;8.60;2.05;;;21.30;99.90;;;;;;4916502;29;20023;-90
2022/08/26 07:21:01;;;;;;;8.30;2.15;;;21.50;99.90;;;;;;4916808;29;20122;-92
2022/08/26 07:23:26;;;;;;;4.70;2.10;;;21.80;99.90;;;;;;4917412;29;20044;-89
2022/08/26 07:25:52;;;;;;;6.32;1.92;;;21.90;99.90;;;;;;4900117;29;20032;-89
2022/08/26 07:28:18;;;;;;;4.90;2.03;;;22.00;99.90;;;;;;4916243;29;20031;-89
2022/08/26 07:30:45;;;;;;;5.30;1.85;;;22.10;99.90;;;;;;4898638;29;20020;-89
2022/08/26 07:33:10;;;;;;;6.07;2.10;;;22.10;99.90;;;;;;4915531;29;20032;-91
2022/08/26 07:35:36;;;;;;;6.03;2.15;;;22.10;99.90;;;;;;4915581;29;20028;-89
2022/08/26 07:38:02;;;;;;;6.18;2.95;;;22.20;99.90;;;;;;4915098;29;20767;-90
2022/08/26 07:40:28;;;;;;;9.63;2.50;;;22.30;99.90;;;;;;4915146;29;20024;-90
2022/08/26 07:42:53;;;;;;;5.88;2.90;;;22.30;99.90;;;;;;4920575;29;20127;-89
2022/08/26 07:45:19;;;;;;;6.88;2.70;;;22.30;99.90;;;;;;4924979;29;20266;-89
2022/08/26 07:47:45;;;;;;;5.68;2.15;;;22.10;99.90;;;;;;4909691;29;20346;-90
2022/08/26 07:50:10;;;;;;;4.18;2.38;;;22.10;99.90;;;;;;4925647;29;20233;-91
2022/08/26 07:52:37;;;;;;;5.13;2.38;;;22.10;99.90;;;;;;4928169;29;20254;-89
2022/08/26 07:55:05;;;;;;;6.88;2.10;;;22.20;99.90;;;;;;4933228;29;20055;-89
2022/08/26 07:57:31;;;;;;;3.97;2.15;;;22.20;99.90;;;;;;4933435;29;20316;-89
2022/08/26 07:59:57;;;;;;;5.70;2.30;;;22.30;99.90;;;;;;4933375;29;20131;-90
2022/08/26 08:02:24;;;;;;;4.32;2.00;;;22.30;99.90;;;;;;4933650;29;20118;-88
2022/08/26 08:04:50;;;;;;;5.10;2.40;;;22.30;99.90;;;;;;4935938;29;20051;-89
2022/08/26 08:07:16;;;;;;;5.25;2.10;;;22.20;99.90;;;;;;4934262;29;20020;-89
2022/08/26 08:09:41;;;;;;;7.03;2.28;;;22.20;99.90;;;;;;4934099;29;20020;-90
2022/08/26 08:12:08;;;;;;;6.35;2.30;;;22.30;99.90;;;;;;4931939;29;20095;-88
2022/08/26 08:14:36;;;;;;;4.07;1.95;;;22.50;99.90;;;;;;4934391;29;20012;-90
2022/08/26 08:17:02;;;;;;;6.32;2.47;;;22.60;99.90;;;;;;4935864;29;20035;-89
2022/08/26 08:19:28;;;;;;;4.80;2.10;;;22.70;99.90;;;;;;4929467;29;20020;-89
2022/08/26 08:21:54;;;;;;;4.97;2.00;;;22.70;99.90;;;;;;4932086;29;20023;-89
2022/08/26 08:24:20;;;;;;;7.00;2.03;;;22.80;99.90;;;;;;4927904;29;20095;-87
2022/08/26 08:26:46;;;;;;;4.78;1.95;;;22.90;99.90;;;;;;4923098;29;20016;-91
2022/08/26 08:29:11;;;;;;;5.63;2.40;;;23.00;99.90;;;;;;4908011;29;20079;-91
2022/08/26 08:31:38;;;;;;;5.40;2.20;;;23.00;99.90;;;;;;4925600;29;20071;-91
2022/08/26 08:34:04;;;;;;;6.55;1.90;;;23.10;99.90;;;;;;4925102;29;20325;-90
2022/08/26 08:36:29;;;;;;;7.18;2.10;;;23.20;99.90;;;;;;4924778;29;20035;-86
2022/08/26 08:38:55;;;;;;;7.70;2.00;;;23.20;99.90;;;;;;4924665;29;20039;-86
2022/08/26 08:41:43;;;;;;;5.68;2.13;;;23.30;99.90;;;;;;4923691;29;20028;-86
2022/08/26 08:44:17;;;;;;;5.35;1.50;;;23.40;99.90;;;;;;4923755;29;20172;-89
2022/08/26 08:46:45;;;;;;;3.00;1.63;;;23.60;99.90;;;;;;4923967;29;20020;-91
2022/08/26 08:49:13;;;;;;;6.40;1.80;;;23.80;99.90;;;;;;4925015;29;20129;-91
2022/08/26 08:51:39;;;;;;;2.53;1.55;;;24.00;99.90;;;;;;4924635;29;20035;-88
2022/08/26 08:54:06;;;;;;;3.15;1.88;;;24.00;99.90;;;;;;4907617;29;20071;-89
2022/08/26 08:56:56;;;;;;;6.68;1.50;;;24.20;99.90;;;;;;4923692;29;20156;-92
2022/08/26 08:59:25;;;;;;;2.85;1.60;;;24.30;99.90;;;;;;4924897;29;20074;-89
2022/08/26 09:01:51;;;;;;;12.68;1.98;;;24.40;99.90;;;;;;4923884;29;20036;-89
2022/08/26 09:04:22;;;;;;;6.30;2.17;;;24.60;99.90;;;;;;4894128;29;20021;-90
2022/08/26 09:06:51;;;;;;;4.43;1.75;;;24.60;99.90;;;;;;4924996;29;20032;-89
2022/08/26 09:09:38;;;;;;;4.32;1.70;;;24.60;99.90;;;;;;4924382;29;20052;-89
2022/08/26 09:12:10;;;;;;;6.63;2.20;;;24.60;99.90;;;;;;4925135;29;20059;-91
2022/08/26 09:14:35;;;;;;;7.20;2.38;;;24.60;99.90;;;;;;4925192;29;20024;-91
2022/08/26 09:17:16;;;;;;;5.95;2.13;;;24.60;99.90;;;;;;4926259;29;20106;-90
2022/08/26 09:19:48;;;;;;;7.38;2.00;;;24.50;99.90;;;;;;4925256;29;20044;-90
2022/08/26 09:22:34;;;;;;;6.50;1.80;;;24.40;99.90;;;;;;4908059;29;20409;-90
2022/08/26 09:25:05;;;;;;;6.00;2.40;;;24.30;99.90;;;;;;4919700;29;20273;-90
2022/08/26 09:27:41;;;;;;;4.65;2.20;;;24.20;99.90;;;;;;4920501;29;20070;-89
2022/08/26 09:30:09;;;;;;;8.50;2.20;;;24.20;99.90;;;;;;4925719;29;20028;-90
2022/08/26 09:32:35;;;;;;;3.05;2.08;;;24.30;99.90;;;;;;4925634;29;20031;-89
2022/08/26 09:35:08;;;;;;;5.43;1.92;;;24.40;99.90;;;;;;4925044;29;20028;-90
2022/08/26 09:37:36;;;;;;;3.10;2.08;;;24.50;99.90;;;;;;4908581;29;20028;-89
2022/08/26 09:40:35;;;;;;;3.70;2.00;;;24.60;99.90;;;;;;4925466;29;20017;-90
2022/08/26 09:43:03;;;;;;;5.22;1.65;;;24.80;99.90;;;;;;4902732;29;20036;-90
2022/08/26 09:45:29;;;;;;;4.70;1.80;;;24.80;99.90;;;;;;4925379;29;20016;-89
2022/08/26 09:47:56;;;;;;;3.75;1.60;;;24.80;99.90;;;;;;4908271;29;20194;-89
2022/08/26 09:50:50;;;;;;;6.05;1.77;;;24.80;99.90;;;;;;4907515;29;20028;-88
2022/08/26 09:53:22;;;;;;;4.37;1.43;;;25.00;99.90;;;;;;4897232;29;20317;-89
2022/08/26 09:56:08;;;;;;;3.28;1.55;;;25.10;99.90;;;;;;4920104;29;20016;-89
2022/08/26 09:58:37;;;;;;;3.30;1.50;;;25.30;99.90;;;;;;4924384;29;20047;-91
2022/08/26 10:01:06;;;;;;;2.65;1.52;;;25.40;99.90;;;;;;4924818;29;20020;-91
2022/08/26 10:03:36;;;;;;;5.22;2.25;;;25.30;99.90;;;;;;4907358;29;20028;-91
2022/08/26 10:06:05;;;;;;;3.22;1.48;;;25.30;99.90;;;;;;4907148;29;20064;-89
2022/08/26 10:08:37;;;;;;;3.42;1.67;;;25.40;99.90;;;;;;4923467;29;20316;-90
2022/08/26 10:11:26;;;;;;;13.45;3.00;;;25.50;99.90;;;;;;4927089;29;20372;-92
2022/08/26 10:14:08;;;;;;;14.25;3.38;;;25.30;99.90;;;;;;4913573;29;20043;-90
2022/08/26 10:16:51;;;;;;;11.07;2.70;;;25.40;99.90;;;;;;4926872;29;20055;-92
2022/08/26 10:19:39;;;;;;;7.07;2.22;;;25.70;99.90;;;;;;4910877;29;20016;-91
2022/08/26 10:22:19;;;;;;;3.55;1.60;;;26.00;99.90;;;;;;4908152;29;20209;-92
2022/08/26 10:24:51;;;;;;;22.17;4.03;;;26.20;99.90;;;;;;4925958;29;20031;-92
2022/08/26 10:27:29;;;;;;;9.20;1.92;;;26.10;99.90;;;;;;4928177;29;20028;-91
2022/08/26 10:30:04;;;;;;;4.85;1.60;;;25.90;99.90;;;;;;4928430;29;20071;-91
2022/08/26 10:32:37;;;;;;;4.18;1.00;;;25.90;99.90;;;;;;4927895;29;20039;-91
2022/08/26 10:35:08;;;;;;;1.15;0.70;;;25.90;99.90;;;;;;4921891;29;20016;-92
2022/08/26 10:37:41;;;;;;;3.40;0.75;;;25.80;99.90;;;;;;4904092;29;20024;-92
2022/08/26 10:40:23;;;;;;;3.25;1.13;;;25.80;99.90;;;;;;4923430;29;20051;-92
2022/08/26 10:43:35;;;;;;;2.67;1.00;;;25.70;99.90;;;;;;4927976;29;20249;-89
2022/08/26 10:46:11;;;;;;;3.15;1.73;;;26.00;99.90;;;;;;4906942;29;20028;-90
2022/08/26 10:48:42;;;;;;;5.70;2.90;;;26.00;99.90;;;;;;4921993;29;20028;-90
2022/08/26 10:51:11;;;;;;;7.00;3.20;;;26.10;99.90;;;;;;4927968;29;20032;-89
2022/08/26 10:53:40;;;;;;;2.22;1.13;;;26.30;99.90;;;;;;4910950;29;20074;-90
2022/08/26 10:56:48;;;;;;;2.53;1.00;;;26.40;99.90;;;;;;4928131;29;20020;-90
2022/08/26 10:59:27;;;;;;;4.68;1.30;;;26.40;99.90;;;;;;4929380;29;20024;-89
2022/08/26 11:02:06;;;;;;;2.50;0.70;;;26.40;99.90;;;;;;4910760;29;20032;-88
2022/08/26 11:04:49;;;;;;;3.20;1.08;;;26.70;99.90;;;;;;4906571;29;20240;-87
2022/08/26 11:07:38;;;;;;;1.70;0.80;;;26.90;99.90;;;;;;4921312;29;20024;-88
2022/08/26 11:10:06;;;;;;;7.55;2.28;;;26.80;99.90;;;;;;4927535;29;20386;-88
2022/08/26 11:12:37;;;;;;;6.03;3.60;;;26.90;99.90;;;;;;4926517;29;20032;-91
2022/08/26 11:15:11;;;;;;;6.75;1.60;;;27.10;99.90;;;;;;4925650;29;20031;-89
2022/08/26 11:17:43;;;;;;;2.60;1.50;;;27.50;99.90;;;;;;4926628;29;20035;-89
2022/08/26 11:20:21;;;;;;;11.13;8.20;;;27.90;99.90;;;;;;4926746;29;20307;-89
2022/08/26 11:22:51;;;;;;;13.25;9.35;;;28.20;99.90;;;;;;4927317;29;20020;-90
2022/08/26 11:25:20;;;;;;;2.17;1.20;;;28.50;99.90;;;;;;4928226;29;20052;-92
2022/08/26 11:28:02;;;;;;;3.35;1.40;;;28.80;99.90;;;;;;4927737;29;20031;-96
2022/08/26 11:30:35;;;;;;;2.22;1.02;;;29.10;99.50;;;;;;4910634;29;20032;-93
2022/08/26 11:33:02;;;;;;;2.50;0.80;;;29.30;98.80;;;;;;4911384;29;20036;-91
2022/08/26 11:35:34;;;;;;;4.25;1.00;;;29.20;98.80;;;;;;4909839;29;20020;-91
2022/08/26 11:38:17;;;;;;;1.58;0.93;;;28.80;98.60;;;;;;4927132;29;20024;-90
2022/08/26 11:40:43;;;;;;;2.92;1.02;;;28.30;99.70;;;;;;4909648;29;20020;-91
2022/08/26 11:43:22;;;;;;;3.80;0.88;;;27.80;99.90;;;;;;4927167;29;20088;-91
2022/08/26 11:45:59;;;;;;;2.97;0.70;;;27.30;99.90;;;;;;4922029;29;20235;-92
2022/08/26 11:48:25;;;;;;;1.20;0.60;;;27.20;99.90;;;;;;4919236;29;20027;-92
2022/08/26 11:51:03;;;;;;;1.38;0.70;;;27.30;99.90;;;;;;4924543;29;20024;-91
2022/08/26 11:53:39;;;;;;;2.70;0.73;;;27.10;99.90;;;;;;4925208;29;20047;-92
2022/08/26 11:56:18;;;;;;;3.35;0.80;;;27.20;99.90;;;;;;4908608;29;20027;-92
2022/08/26 11:58:49;;;;;;;2.05;0.80;;;27.30;99.90;;;;;;4909033;29;20423;-94
2022/08/26 12:01:36;;;;;;;1.45;0.63;;;26.90;99.90;;;;;;4925704;29;20016;-92
2022/08/26 12:04:05;;;;;;;3.03;0.70;;;26.80;99.90;;;;;;4925413;29;20024;-90
2022/08/26 12:06:37;;;;;;;7.05;0.85;;;26.80;99.90;;;;;;4909505;29;20304;-95
2022/08/26 12:09:10;;;;;;;1.67;0.88;;;26.90;99.90;;;;;;4923328;29;20028;-93
2022/08/26 12:11:38;;;;;;;4.97;0.70;;;26.90;99.90;;;;;;4908421;29;20096;-93
2022/08/26 12:14:08;;;;;;;2.17;0.70;;;27.00;99.90;;;;;;4908262;29;20039;-90
2022/08/26 12:16:39;;;;;;;4.10;1.00;;;27.00;99.90;;;;;;4925183;29;20028;-92
2022/08/26 12:19:43;;;;;;;2.83;0.85;;;27.00;99.90;;;;;;4907941;29;20050;-92
2022/08/26 12:25:21;;;;;;;2.53;1.00;;;27.20;99.90;;;;;;4845617;29;20034;-92
2022/08/26 12:27:47;;;;;;;2.72;0.85;;;27.70;99.90;;;;;;4908780;29;20224;-92
2022/08/26 12:30:18;;;;;;;3.83;0.75;;;27.70;99.90;;;;;;4908191;29;20032;-93
2022/08/26 12:32:52;;;;;;;2.65;0.90;;;27.70;99.90;;;;;;4925047;29;20059;-91
2022/08/26 12:35:19;;;;;;;4.93;0.98;;;27.60;99.90;;;;;;4908947;29;20032;-89
2022/08/26 12:37:50;;;;;;;2.97;0.70;;;27.70;99.90;;;;;;4909009;29;20059;-93
2022/08/26 12:40:26;;;;;;;2.20;0.82;;;27.70;99.90;;;;;;4908695;29;20281;-92
2022/08/26 12:42:52;;;;;;;7.03;1.10;;;27.90;99.90;;;;;;4925875;29;20308;-93
2022/08/26 12:45:34;;;;;;;4.43;0.90;;;27.80;99.90;;;;;;4929892;29;20035;-91
2022/08/26 12:48:05;;;;;;;2.38;0.80;;;27.70;99.90;;;;;;4928153;29;20020;-92
2022/08/26 12:50:37;;;;;;;4.00;0.90;;;27.80;99.90;;;;;;4925184;29;20273;-91
2022/08/26 12:53:03;;;;;;;2.47;0.70;;;28.00;99.90;;;;;;4908739;29;20253;-92
2022/08/26 12:55:31;;;;;;;4.63;0.90;;;28.00;99.90;;;;;;4909560;29;20280;-92
2022/08/26 12:58:27;;;;;;;4.65;1.02;;;27.90;99.90;;;;;;4926076;29;20091;-91
2022/08/26 13:01:07;;;;;;;2.45;0.90;;;28.00;99.50;;;;;;4925501;29;20383;-90
2022/08/26 13:03:33;;;;;;;3.63;1.10;;;28.00;99.80;;;;;;4925568;29;20327;-90
2022/08/26 13:06:20;;;;;;;2.38;0.98;;;27.90;99.90;;;;;;4925283;29;20055;-89
2022/08/26 13:08:52;;;;;;;2.40;0.90;;;27.80;99.80;;;;;;4905716;29;20024;-90
2022/08/26 13:11:19;;;;;;;7.82;1.13;;;27.60;99.80;;;;;;4925287;29;20032;-89